sensor_id;sensor_type;location;lat;lon;timestamp;P1;durP1;ratioP1;P2;durP2;ratioP2
43664;SDS011;29263;48.172;11.484;2023-02-19T00:01:21;2.27;;;0.80;;
43664;SDS011;29263;48.172;11.484;2023-02-19T00:03:52;1.48;;;0.98;;
43664;SDS011;29263;48.172;11.484;2023-02-19T00:06:20;1.00;;;0.90;;
43664;SDS011;29263;48.172;11.484;2023-02-19T00:08:47;3.72;;;1.08;;
43664;SDS011;29263;48.172;11.484;2023-02-19T00:11:14;1.77;;;1.10;;
43664;SDS011;29263;48.172;11.484;2023-02-19T00:13:42;1.55;;;1.05;;
43664;SDS011;29263;48.172;11.484;2023-02-19T00:16:11;1.55;;;0.75;;
43664;SDS011;29263;48.172;11.484;2023-02-19T00:18:47;1.97;;;0.90;;
43664;SDS011;29263;48.172;11.484;2023-02-19T00:21:15;1.65;;;1.10;;
43664;SDS011;29263;48.172;11.484;2023-02-19T00:23:41;2.22;;;1.02;;
43664;SDS011;29263;48.172;11.484;2023-02-19T00:26:08;2.30;;;1.13;;
43664;SDS011;29263;48.172;11.484;2023-02-19T00:28:36;1.40;;;0.95;;
43664;SDS011;29263;48.172;11.484;2023-02-19T00:31:03;2.07;;;0.90;;
43664;SDS011;29263;48.172;11.484;2023-02-19T00:33:49;2.30;;;0.80;;
43664;SDS011;29263;48.172;11.484;2023-02-19T00:36:17;0.93;;;0.80;;
43664;SDS011;29263;48.172;11.484;2023-02-19T00:38:43;1.70;;;0.97;;
43664;SDS011;29263;48.172;11.484;2023-02-19T00:41:10;0.87;;;0.80;;
43664;SDS011;29263;48.172;11.484;2023-02-19T00:43:53;1.13;;;0.90;;
43664;SDS011;29263;48.172;11.484;2023-02-19T00:46:20;1.03;;;0.70;;
43664;SDS011;29263;48.172;11.484;2023-02-19T00:48:47;1.05;;;0.80;;
43664;SDS011;29263;48.172;11.484;2023-02-19T00:51:13;2.23;;;1.33;;
43664;SDS011;29263;48.172;11.484;2023-02-19T00:53:39;1.97;;;1.10;;
43664;SDS011;29263;48.172;11.484;2023-02-19T00:56:05;2.17;;;0.90;;
43664;SDS011;29263;48.172;11.484;2023-02-19T00:58:31;0.90;;;0.70;;
43664;SDS011;29263;48.172;11.484;2023-02-19T01:00:57;2.17;;;1.00;;
43664;SDS011;29263;48.172;11.484;2023-02-19T01:03:23;1.20;;;0.60;;
43664;SDS011;29263;48.172;11.484;2023-02-19T01:05:49;1.35;;;0.80;;
43664;SDS011;29263;48.172;11.484;2023-02-19T01:08:15;1.57;;;0.87;;
43664;SDS011;29263;48.172;11.484;2023-02-19T01:10:41;1.10;;;0.80;;
43664;SDS011;29263;48.172;11.484;2023-02-19T01:13:07;3.38;;;0.93;;
43664;SDS011;29263;48.172;11.484;2023-02-19T01:15:33;1.02;;;0.70;;
43664;SDS011;29263;48.172;11.484;2023-02-19T01:17:59;1.30;;;0.70;;
43664;SDS011;29263;48.172;11.484;2023-02-19T01:20:25;1.70;;;1.13;;
43664;SDS011;29263;48.172;11.484;2023-02-19T01:22:51;2.27;;;0.70;;
43664;SDS011;29263;48.172;11.484;2023-02-19T01:25:17;1.70;;;1.00;;
43664;SDS011;29263;48.172;11.484;2023-02-19T01:27:42;1.10;;;0.87;;
43664;SDS011;29263;48.172;11.484;2023-02-19T01:30:08;2.15;;;0.80;;
43664;SDS011;29263;48.172;11.484;2023-02-19T01:32:34;1.40;;;0.98;;
43664;SDS011;29263;48.172;11.484;2023-02-19T01:35:00;1.10;;;0.63;;
43664;SDS011;29263;48.172;11.484;2023-02-19T01:37:26;0.70;;;0.70;;
43664;SDS011;29263;48.172;11.484;2023-02-19T01:39:52;1.13;;;0.90;;
43664;SDS011;29263;48.172;11.484;2023-02-19T01:42:17;1.10;;;0.87;;
43664;SDS011;29263;48.172;11.484;2023-02-19T01:47:11;1.13;;;0.70;;
43664;SDS011;29263;48.172;11.484;2023-02-19T01:49:45;0.77;;;0.60;;
43664;SDS011;29263;48.172;11.484;2023-02-19T01:54:55;1.45;;;1.00;;
43664;SDS011;29263;48.172;11.484;2023-02-19T01:57:26;1.43;;;0.90;;
43664;SDS011;29263;48.172;11.484;2023-02-19T01:59:57;1.47;;;1.07;;
43664;SDS011;29263;48.172;11.484;2023-02-19T02:02:30;1.60;;;1.17;;
43664;SDS011;29263;48.172;11.484;2023-02-19T02:04:55;1.93;;;0.83;;
43664;SDS011;29263;48.172;11.484;2023-02-19T02:07:24;1.13;;;0.90;;
43664;SDS011;29263;48.172;11.484;2023-02-19T02:10:08;1.07;;;0.93;;
43664;SDS011;29263;48.172;11.484;2023-02-19T02:12:47;1.20;;;0.80;;
43664;SDS011;29263;48.172;11.484;2023-02-19T02:15:13;0.90;;;0.80;;
43664;SDS011;29263;48.172;11.484;2023-02-19T02:23:07;1.27;;;1.00;;
43664;SDS011;29263;48.172;11.484;2023-02-19T02:25:49;1.60;;;0.83;;
43664;SDS011;29263;48.172;11.484;2023-02-19T02:31:38;1.60;;;0.90;;
43664;SDS011;29263;48.172;11.484;2023-02-19T02:34:11;0.85;;;0.70;;
43664;SDS011;29263;48.172;11.484;2023-02-19T02:36:49;1.73;;;1.00;;
43664;SDS011;29263;48.172;11.484;2023-02-19T02:39:19;2.10;;;1.20;;
43664;SDS011;29263;48.172;11.484;2023-02-19T02:41:49;1.97;;;1.00;;
43664;SDS011;29263;48.172;11.484;2023-02-19T02:44:39;2.00;;;1.13;;
43664;SDS011;29263;48.172;11.484;2023-02-19T02:47:06;1.97;;;1.23;;
43664;SDS011;29263;48.172;11.484;2023-02-19T02:49:54;2.10;;;1.00;;
43664;SDS011;29263;48.172;11.484;2023-02-19T02:52:32;1.80;;;1.03;;
43664;SDS011;29263;48.172;11.484;2023-02-19T02:55:19;1.80;;;1.40;;
43664;SDS011;29263;48.172;11.484;2023-02-19T02:57:46;1.53;;;1.13;;
43664;SDS011;29263;48.172;11.484;2023-02-19T03:00:12;2.27;;;1.30;;
43664;SDS011;29263;48.172;11.484;2023-02-19T03:02:38;1.80;;;1.40;;
43664;SDS011;29263;48.172;11.484;2023-02-19T03:05:16;2.70;;;1.47;;
43664;SDS011;29263;48.172;11.484;2023-02-19T03:10:51;1.77;;;1.33;;
43664;SDS011;29263;48.172;11.484;2023-02-19T03:13:45;2.47;;;1.10;;
43664;SDS011;29263;48.172;11.484;2023-02-19T03:16:30;1.40;;;1.03;;
43664;SDS011;29263;48.172;11.484;2023-02-19T03:19:18;1.70;;;1.20;;
43664;SDS011;29263;48.172;11.484;2023-02-19T03:21:46;2.20;;;1.20;;
43664;SDS011;29263;48.172;11.484;2023-02-19T03:24:17;2.53;;;1.30;;
43664;SDS011;29263;48.172;11.484;2023-02-19T03:27:05;3.03;;;1.30;;
43664;SDS011;29263;48.172;11.484;2023-02-19T03:29:34;1.77;;;1.23;;
43664;SDS011;29263;48.172;11.484;2023-02-19T03:32:45;1.63;;;1.30;;
43664;SDS011;29263;48.172;11.484;2023-02-19T03:35:01;2.87;;;1.23;;
43664;SDS011;29263;48.172;11.484;2023-02-19T03:37:37;2.90;;;1.40;;
43664;SDS011;29263;48.172;11.484;2023-02-19T03:40:08;1.40;;;1.10;;
43664;SDS011;29263;48.172;11.484;2023-02-19T03:42:38;5.57;;;1.60;;
43664;SDS011;29263;48.172;11.484;2023-02-19T03:45:13;2.27;;;1.30;;
43664;SDS011;29263;48.172;11.484;2023-02-19T03:50:40;4.30;;;1.40;;
43664;SDS011;29263;48.172;11.484;2023-02-19T03:53:29;1.93;;;1.30;;
43664;SDS011;29263;48.172;11.484;2023-02-19T03:56:27;2.17;;;1.43;;
43664;SDS011;29263;48.172;11.484;2023-02-19T03:59:01;2.80;;;1.43;;
43664;SDS011;29263;48.172;11.484;2023-02-19T04:01:31;3.27;;;1.40;;
43664;SDS011;29263;48.172;11.484;2023-02-19T04:04:27;2.33;;;1.50;;
43664;SDS011;29263;48.172;11.484;2023-02-19T04:06:55;2.47;;;1.50;;
43664;SDS011;29263;48.172;11.484;2023-02-19T04:09:22;1.73;;;1.40;;
43664;SDS011;29263;48.172;11.484;2023-02-19T04:11:51;1.48;;;1.30;;
43664;SDS011;29263;48.172;11.484;2023-02-19T04:14:19;1.40;;;1.13;;
43664;SDS011;29263;48.172;11.484;2023-02-19T04:16:53;1.70;;;1.30;;
43664;SDS011;29263;48.172;11.484;2023-02-19T04:19:24;2.93;;;1.60;;
43664;SDS011;29263;48.172;11.484;2023-02-19T04:21:52;2.77;;;1.40;;
43664;SDS011;29263;48.172;11.484;2023-02-19T04:24:30;2.83;;;1.30;;
43664;SDS011;29263;48.172;11.484;2023-02-19T04:27:02;2.87;;;1.47;;
43664;SDS011;29263;48.172;11.484;2023-02-19T04:29:30;2.07;;;1.43;;
43664;SDS011;29263;48.172;11.484;2023-02-19T04:31:55;2.17;;;1.33;;
43664;SDS011;29263;48.172;11.484;2023-02-19T04:34:21;2.73;;;1.40;;
43664;SDS011;29263;48.172;11.484;2023-02-19T04:36:46;1.87;;;1.40;;
43664;SDS011;29263;48.172;11.484;2023-02-19T04:39:12;2.20;;;1.67;;
43664;SDS011;29263;48.172;11.484;2023-02-19T04:41:38;1.57;;;1.30;;
43664;SDS011;29263;48.172;11.484;2023-02-19T04:44:04;2.03;;;1.30;;
43664;SDS011;29263;48.172;11.484;2023-02-19T04:46:29;2.23;;;1.63;;
43664;SDS011;29263;48.172;11.484;2023-02-19T04:48:55;1.90;;;1.33;;
43664;SDS011;29263;48.172;11.484;2023-02-19T04:51:20;2.27;;;1.10;;
43664;SDS011;29263;48.172;11.484;2023-02-19T04:53:46;3.40;;;1.33;;
43664;SDS011;29263;48.172;11.484;2023-02-19T04:56:13;2.07;;;1.40;;
43664;SDS011;29263;48.172;11.484;2023-02-19T04:58:40;1.73;;;1.20;;
43664;SDS011;29263;48.172;11.484;2023-02-19T05:01:06;2.23;;;1.30;;
43664;SDS011;29263;48.172;11.484;2023-02-19T05:03:32;2.93;;;1.30;;
43664;SDS011;29263;48.172;11.484;2023-02-19T05:06:02;1.63;;;1.20;;
43664;SDS011;29263;48.172;11.484;2023-02-19T05:08:29;1.70;;;1.10;;
43664;SDS011;29263;48.172;11.484;2023-02-19T05:10:58;2.67;;;1.97;;
43664;SDS011;29263;48.172;11.484;2023-02-19T05:13:25;2.10;;;1.20;;
43664;SDS011;29263;48.172;11.484;2023-02-19T05:15:57;1.87;;;1.40;;
43664;SDS011;29263;48.172;11.484;2023-02-19T05:18:28;3.87;;;1.90;;
43664;SDS011;29263;48.172;11.484;2023-02-19T05:20:55;3.30;;;2.10;;
43664;SDS011;29263;48.172;11.484;2023-02-19T05:23:22;6.27;;;2.70;;
43664;SDS011;29263;48.172;11.484;2023-02-19T05:25:48;8.17;;;4.83;;
43664;SDS011;29263;48.172;11.484;2023-02-19T05:28:14;3.30;;;2.23;;
43664;SDS011;29263;48.172;11.484;2023-02-19T05:30:46;12.10;;;4.00;;
43664;SDS011;29263;48.172;11.484;2023-02-19T05:33:14;4.57;;;2.50;;
43664;SDS011;29263;48.172;11.484;2023-02-19T05:35:41;12.83;;;5.73;;
43664;SDS011;29263;48.172;11.484;2023-02-19T05:38:07;11.20;;;4.33;;
43664;SDS011;29263;48.172;11.484;2023-02-19T05:40:33;6.77;;;3.20;;
43664;SDS011;29263;48.172;11.484;2023-02-19T05:42:59;7.63;;;3.90;;
43664;SDS011;29263;48.172;11.484;2023-02-19T05:45:24;3.93;;;1.40;;
43664;SDS011;29263;48.172;11.484;2023-02-19T05:47:50;2.17;;;1.20;;
43664;SDS011;29263;48.172;11.484;2023-02-19T05:50:16;2.10;;;1.50;;
43664;SDS011;29263;48.172;11.484;2023-02-19T05:52:41;1.60;;;1.10;;
43664;SDS011;29263;48.172;11.484;2023-02-19T05:55:08;1.63;;;1.17;;
43664;SDS011;29263;48.172;11.484;2023-02-19T05:57:39;1.27;;;0.90;;
43664;SDS011;29263;48.172;11.484;2023-02-19T06:00:06;1.63;;;1.00;;
43664;SDS011;29263;48.172;11.484;2023-02-19T06:02:32;1.93;;;1.10;;
43664;SDS011;29263;48.172;11.484;2023-02-19T06:04:58;1.27;;;0.80;;
43664;SDS011;29263;48.172;11.484;2023-02-19T06:07:23;1.73;;;1.00;;
43664;SDS011;29263;48.172;11.484;2023-02-19T06:09:49;1.97;;;1.23;;
43664;SDS011;29263;48.172;11.484;2023-02-19T06:12:15;2.57;;;1.30;;
43664;SDS011;29263;48.172;11.484;2023-02-19T06:14:40;1.20;;;0.93;;
43664;SDS011;29263;48.172;11.484;2023-02-19T06:17:06;1.70;;;1.10;;
43664;SDS011;29263;48.172;11.484;2023-02-19T06:19:32;1.40;;;1.17;;
43664;SDS011;29263;48.172;11.484;2023-02-19T06:21:57;1.80;;;0.90;;
43664;SDS011;29263;48.172;11.484;2023-02-19T06:24:23;1.23;;;0.80;;
43664;SDS011;29263;48.172;11.484;2023-02-19T06:26:48;2.47;;;1.10;;
43664;SDS011;29263;48.172;11.484;2023-02-19T06:29:15;1.03;;;0.90;;
43664;SDS011;29263;48.172;11.484;2023-02-19T06:31:40;1.60;;;0.90;;
43664;SDS011;29263;48.172;11.484;2023-02-19T06:34:06;1.40;;;1.07;;
43664;SDS011;29263;48.172;11.484;2023-02-19T06:36:32;1.33;;;1.00;;
43664;SDS011;29263;48.172;11.484;2023-02-19T06:39:00;1.43;;;1.10;;
43664;SDS011;29263;48.172;11.484;2023-02-19T06:41:27;1.63;;;1.10;;
43664;SDS011;29263;48.172;11.484;2023-02-19T06:43:53;1.40;;;1.10;;
43664;SDS011;29263;48.172;11.484;2023-02-19T06:46:18;1.00;;;0.83;;
43664;SDS011;29263;48.172;11.484;2023-02-19T06:48:44;1.10;;;0.90;;
43664;SDS011;29263;48.172;11.484;2023-02-19T06:51:10;2.30;;;0.70;;
43664;SDS011;29263;48.172;11.484;2023-02-19T06:53:37;1.23;;;0.80;;
43664;SDS011;29263;48.172;11.484;2023-02-19T06:56:06;1.67;;;0.97;;
43664;SDS011;29263;48.172;11.484;2023-02-19T06:58:48;1.40;;;1.03;;
43664;SDS011;29263;48.172;11.484;2023-02-19T07:01:14;1.40;;;1.30;;
43664;SDS011;29263;48.172;11.484;2023-02-19T07:03:39;1.43;;;1.00;;
43664;SDS011;29263;48.172;11.484;2023-02-19T07:06:05;1.53;;;1.30;;
43664;SDS011;29263;48.172;11.484;2023-02-19T07:08:31;1.33;;;1.13;;
43664;SDS011;29263;48.172;11.484;2023-02-19T07:10:57;1.97;;;1.20;;
43664;SDS011;29263;48.172;11.484;2023-02-19T07:13:23;1.67;;;1.20;;
43664;SDS011;29263;48.172;11.484;2023-02-19T07:15:51;1.73;;;1.00;;
43664;SDS011;29263;48.172;11.484;2023-02-19T07:18:21;1.40;;;1.20;;
43664;SDS011;29263;48.172;11.484;2023-02-19T07:20:47;2.37;;;1.20;;
43664;SDS011;29263;48.172;11.484;2023-02-19T07:23:12;4.40;;;1.40;;
43664;SDS011;29263;48.172;11.484;2023-02-19T07:25:38;1.87;;;1.00;;
43664;SDS011;29263;48.172;11.484;2023-02-19T07:28:04;1.43;;;1.33;;
43664;SDS011;29263;48.172;11.484;2023-02-19T07:30:30;1.93;;;1.47;;
43664;SDS011;29263;48.172;11.484;2023-02-19T07:32:56;1.97;;;1.30;;
43664;SDS011;29263;48.172;11.484;2023-02-19T07:35:21;1.70;;;1.60;;
43664;SDS011;29263;48.172;11.484;2023-02-19T07:37:47;2.63;;;1.43;;
43664;SDS011;29263;48.172;11.484;2023-02-19T07:40:12;2.20;;;1.20;;
43664;SDS011;29263;48.172;11.484;2023-02-19T07:42:38;2.33;;;1.50;;
43664;SDS011;29263;48.172;11.484;2023-02-19T07:45:04;1.20;;;1.00;;
43664;SDS011;29263;48.172;11.484;2023-02-19T07:47:30;1.70;;;1.20;;
43664;SDS011;29263;48.172;11.484;2023-02-19T07:49:55;3.93;;;2.00;;
43664;SDS011;29263;48.172;11.484;2023-02-19T07:52:21;2.20;;;1.40;;
43664;SDS011;29263;48.172;11.484;2023-02-19T07:54:47;1.27;;;1.13;;
43664;SDS011;29263;48.172;11.484;2023-02-19T07:57:12;2.87;;;1.60;;
43664;SDS011;29263;48.172;11.484;2023-02-19T07:59:38;1.57;;;1.27;;
43664;SDS011;29263;48.172;11.484;2023-02-19T08:02:09;2.30;;;1.60;;
43664;SDS011;29263;48.172;11.484;2023-02-19T08:05:01;2.57;;;1.43;;
43664;SDS011;29263;48.172;11.484;2023-02-19T08:07:30;3.67;;;1.60;;
43664;SDS011;29263;48.172;11.484;2023-02-19T08:09:59;4.80;;;1.50;;
43664;SDS011;29263;48.172;11.484;2023-02-19T08:12:43;2.90;;;1.20;;
43664;SDS011;29263;48.172;11.484;2023-02-19T08:15:27;2.90;;;1.70;;
43664;SDS011;29263;48.172;11.484;2023-02-19T08:17:53;1.60;;;1.40;;
43664;SDS011;29263;48.172;11.484;2023-02-19T08:20:22;1.30;;;1.10;;
43664;SDS011;29263;48.172;11.484;2023-02-19T08:22:48;1.43;;;1.00;;
43664;SDS011;29263;48.172;11.484;2023-02-19T08:25:13;1.50;;;1.00;;
43664;SDS011;29263;48.172;11.484;2023-02-19T08:27:39;1.53;;;1.20;;
43664;SDS011;29263;48.172;11.484;2023-02-19T08:30:05;1.50;;;1.10;;
43664;SDS011;29263;48.172;11.484;2023-02-19T08:32:32;1.43;;;1.00;;
43664;SDS011;29263;48.172;11.484;2023-02-19T08:34:58;0.97;;;0.80;;
43664;SDS011;29263;48.172;11.484;2023-02-19T08:37:23;1.60;;;1.10;;
43664;SDS011;29263;48.172;11.484;2023-02-19T08:39:49;1.13;;;0.90;;
43664;SDS011;29263;48.172;11.484;2023-02-19T08:42:14;0.90;;;0.70;;
43664;SDS011;29263;48.172;11.484;2023-02-19T08:44:40;1.30;;;0.70;;
43664;SDS011;29263;48.172;11.484;2023-02-19T08:47:06;0.53;;;0.53;;
43664;SDS011;29263;48.172;11.484;2023-02-19T08:49:32;0.80;;;0.60;;
43664;SDS011;29263;48.172;11.484;2023-02-19T08:51:57;0.67;;;0.60;;
43664;SDS011;29263;48.172;11.484;2023-02-19T08:54:23;1.17;;;0.90;;
43664;SDS011;29263;48.172;11.484;2023-02-19T08:56:48;0.63;;;0.40;;
43664;SDS011;29263;48.172;11.484;2023-02-19T08:59:14;0.50;;;0.50;;
43664;SDS011;29263;48.172;11.484;2023-02-19T09:01:39;0.80;;;0.57;;
43664;SDS011;29263;48.172;11.484;2023-02-19T09:04:05;0.87;;;0.70;;
43664;SDS011;29263;48.172;11.484;2023-02-19T09:06:32;0.53;;;0.40;;
43664;SDS011;29263;48.172;11.484;2023-02-19T09:08:57;0.83;;;0.57;;
43664;SDS011;29263;48.172;11.484;2023-02-19T09:11:23;0.80;;;0.60;;
43664;SDS011;29263;48.172;11.484;2023-02-19T09:13:49;0.90;;;0.50;;
43664;SDS011;29263;48.172;11.484;2023-02-19T09:16:14;0.47;;;0.40;;
43664;SDS011;29263;48.172;11.484;2023-02-19T09:18:40;0.60;;;0.30;;
43664;SDS011;29263;48.172;11.484;2023-02-19T09:21:05;0.57;;;0.40;;
43664;SDS011;29263;48.172;11.484;2023-02-19T09:23:34;0.60;;;0.30;;
43664;SDS011;29263;48.172;11.484;2023-02-19T09:26:00;0.40;;;0.40;;
43664;SDS011;29263;48.172;11.484;2023-02-19T09:28:31;0.83;;;0.30;;
43664;SDS011;29263;48.172;11.484;2023-02-19T09:31:02;0.20;;;0.17;;
43664;SDS011;29263;48.172;11.484;2023-02-19T09:33:46;0.10;;;0.10;;
43664;SDS011;29263;48.172;11.484;2023-02-19T09:36:13;0.30;;;0.20;;
43664;SDS011;29263;48.172;11.484;2023-02-19T09:38:40;0.93;;;0.20;;
43664;SDS011;29263;48.172;11.484;2023-02-19T09:41:13;0.13;;;0.13;;
43664;SDS011;29263;48.172;11.484;2023-02-19T09:43:42;0.20;;;0.10;;
43664;SDS011;29263;48.172;11.484;2023-02-19T09:46:11;0.10;;;0.10;;
43664;SDS011;29263;48.172;11.484;2023-02-19T09:48:43;1.00;;;0.20;;
43664;SDS011;29263;48.172;11.484;2023-02-19T09:51:08;0.20;;;0.10;;
43664;SDS011;29263;48.172;11.484;2023-02-19T09:53:39;0.40;;;0.10;;
43664;SDS011;29263;48.172;11.484;2023-02-19T09:56:07;0.33;;;0.10;;
43664;SDS011;29263;48.172;11.484;2023-02-19T09:58:34;1.17;;;0.30;;
43664;SDS011;29263;48.172;11.484;2023-02-19T10:01:06;0.30;;;0.10;;
43664;SDS011;29263;48.172;11.484;2023-02-19T10:03:38;0.20;;;0.20;;
43664;SDS011;29263;48.172;11.484;2023-02-19T10:06:11;0.30;;;0.20;;
43664;SDS011;29263;48.172;11.484;2023-02-19T10:08:42;0.90;;;0.20;;
43664;SDS011;29263;48.172;11.484;2023-02-19T10:11:10;0.43;;;0.30;;
43664;SDS011;29263;48.172;11.484;2023-02-19T10:16:16;1.87;;;0.87;;
43664;SDS011;29263;48.172;11.484;2023-02-19T10:18:45;1.37;;;0.30;;
43664;SDS011;29263;48.172;11.484;2023-02-19T10:21:20;0.30;;;0.30;;
43664;SDS011;29263;48.172;11.484;2023-02-19T10:23:49;0.23;;;0.10;;
43664;SDS011;29263;48.172;11.484;2023-02-19T10:26:22;2.17;;;0.10;;
43664;SDS011;29263;48.172;11.484;2023-02-19T10:28:48;0.20;;;0.13;;
43664;SDS011;29263;48.172;11.484;2023-02-19T10:31:15;1.17;;;0.50;;
43664;SDS011;29263;48.172;11.484;2023-02-19T10:33:47;0.50;;;0.30;;
43664;SDS011;29263;48.172;11.484;2023-02-19T10:38:53;0.40;;;0.30;;
43664;SDS011;29263;48.172;11.484;2023-02-19T10:41:21;0.20;;;0.20;;
43664;SDS011;29263;48.172;11.484;2023-02-19T10:46:42;1.08;;;0.20;;
43664;SDS011;29263;48.172;11.484;2023-02-19T10:49:23;0.20;;;0.20;;
43664;SDS011;29263;48.172;11.484;2023-02-19T10:51:52;0.28;;;0.15;;
43664;SDS011;29263;48.172;11.484;2023-02-19T10:56:48;0.10;;;0.10;;
43664;SDS011;29263;48.172;11.484;2023-02-19T10:59:17;0.20;;;0.20;;
43664;SDS011;29263;48.172;11.484;2023-02-19T11:04:31;0.20;;;0.10;;
43664;SDS011;29263;48.172;11.484;2023-02-19T11:07:08;0.10;;;0.10;;
43664;SDS011;29263;48.172;11.484;2023-02-19T11:09:43;0.10;;;0.10;;
43664;SDS011;29263;48.172;11.484;2023-02-19T11:14:47;0.95;;;0.20;;
43664;SDS011;29263;48.172;11.484;2023-02-19T11:17:22;0.70;;;0.23;;
43664;SDS011;29263;48.172;11.484;2023-02-19T11:19:53;0.10;;;0.10;;
43664;SDS011;29263;48.172;11.484;2023-02-19T11:22:31;0.10;;;0.10;;
43664;SDS011;29263;48.172;11.484;2023-02-19T11:25:04;0.00;;;0.00;;
43664;SDS011;29263;48.172;11.484;2023-02-19T11:27:57;0.10;;;0.10;;
43664;SDS011;29263;48.172;11.484;2023-02-19T11:30:40;0.30;;;0.10;;
43664;SDS011;29263;48.172;11.484;2023-02-19T11:35:42;2.33;;;0.10;;
43664;SDS011;29263;48.172;11.484;2023-02-19T11:38:09;0.67;;;0.10;;
43664;SDS011;29263;48.172;11.484;2023-02-19T11:40:39;1.65;;;0.10;;
43664;SDS011;29263;48.172;11.484;2023-02-19T11:51:29;0.30;;;0.10;;
43664;SDS011;29263;48.172;11.484;2023-02-19T11:53:35;0.10;;;0.10;;
43664;SDS011;29263;48.172;11.484;2023-02-19T11:56:18;0.47;;;0.20;;
43664;SDS011;29263;48.172;11.484;2023-02-19T12:20:42;0.30;;;0.30;;
43664;SDS011;29263;48.172;11.484;2023-02-19T12:34:30;0.20;;;0.20;;
43664;SDS011;29263;48.172;11.484;2023-02-19T12:43:15;0.80;;;0.30;;
43664;SDS011;29263;48.172;11.484;2023-02-19T12:50:54;0.27;;;0.20;;
43664;SDS011;29263;48.172;11.484;2023-02-19T12:53:55;0.80;;;0.43;;
43664;SDS011;29263;48.172;11.484;2023-02-19T12:56:21;0.47;;;0.40;;
43664;SDS011;29263;48.172;11.484;2023-02-19T12:59:15;0.90;;;0.40;;
43664;SDS011;29263;48.172;11.484;2023-02-19T13:02:14;0.73;;;0.30;;
43664;SDS011;29263;48.172;11.484;2023-02-19T13:08:00;1.00;;;0.27;;
43664;SDS011;29263;48.172;11.484;2023-02-19T13:10:28;1.03;;;0.40;;
43664;SDS011;29263;48.172;11.484;2023-02-19T13:13:27;1.03;;;0.33;;
43664;SDS011;29263;48.172;11.484;2023-02-19T13:16:01;1.27;;;0.40;;
43664;SDS011;29263;48.172;11.484;2023-02-19T13:18:35;0.47;;;0.43;;
43664;SDS011;29263;48.172;11.484;2023-02-19T13:21:10;1.23;;;0.43;;
43664;SDS011;29263;48.172;11.484;2023-02-19T13:23:58;0.47;;;0.30;;
43664;SDS011;29263;48.172;11.484;2023-02-19T13:37:30;1.35;;;0.40;;
43664;SDS011;29263;48.172;11.484;2023-02-19T13:39:59;1.83;;;0.40;;
43664;SDS011;29263;48.172;11.484;2023-02-19T13:42:51;0.50;;;0.23;;
43664;SDS011;29263;48.172;11.484;2023-02-19T13:48:14;0.10;;;0.10;;
43664;SDS011;29263;48.172;11.484;2023-02-19T14:28:16;0.77;;;0.20;;
43664;SDS011;29263;48.172;11.484;2023-02-19T14:31:09;0.47;;;0.30;;
43664;SDS011;29263;48.172;11.484;2023-02-19T14:33:49;0.57;;;0.32;;
43664;SDS011;29263;48.172;11.484;2023-02-19T14:39:02;0.20;;;0.20;;
43664;SDS011;29263;48.172;11.484;2023-02-19T14:42:07;0.97;;;0.40;;
43664;SDS011;29263;48.172;11.484;2023-02-19T14:44:47;1.57;;;0.60;;
43664;SDS011;29263;48.172;11.484;2023-02-19T14:47:23;0.97;;;0.60;;
43664;SDS011;29263;48.172;11.484;2023-02-19T14:49:52;1.00;;;0.35;;
43664;SDS011;29263;48.172;11.484;2023-02-19T14:52:23;0.67;;;0.50;;
43664;SDS011;29263;48.172;11.484;2023-02-19T14:55:23;2.20;;;0.33;;
43664;SDS011;29263;48.172;11.484;2023-02-19T14:58:00;0.47;;;0.30;;
43664;SDS011;29263;48.172;11.484;2023-02-19T15:00:34;1.70;;;0.47;;
43664;SDS011;29263;48.172;11.484;2023-02-19T15:03:23;1.07;;;0.30;;
43664;SDS011;29263;48.172;11.484;2023-02-19T15:06:03;0.50;;;0.30;;
43664;SDS011;29263;48.172;11.484;2023-02-19T15:08:32;0.67;;;0.30;;
43664;SDS011;29263;48.172;11.484;2023-02-19T15:11:01;2.67;;;0.50;;
43664;SDS011;29263;48.172;11.484;2023-02-19T15:13:28;1.03;;;0.37;;
43664;SDS011;29263;48.172;11.484;2023-02-19T15:15:55;0.40;;;0.40;;
43664;SDS011;29263;48.172;11.484;2023-02-19T15:18:22;1.47;;;0.40;;
43664;SDS011;29263;48.172;11.484;2023-02-19T15:20:49;1.53;;;0.30;;
43664;SDS011;29263;48.172;11.484;2023-02-19T15:23:22;2.90;;;0.67;;
43664;SDS011;29263;48.172;11.484;2023-02-19T15:25:48;1.07;;;0.40;;
43664;SDS011;29263;48.172;11.484;2023-02-19T15:28:19;1.07;;;0.50;;
43664;SDS011;29263;48.172;11.484;2023-02-19T15:31:09;1.03;;;0.47;;
43664;SDS011;29263;48.172;11.484;2023-02-19T15:33:38;1.40;;;0.67;;
43664;SDS011;29263;48.172;11.484;2023-02-19T15:36:05;2.67;;;0.40;;
43664;SDS011;29263;48.172;11.484;2023-02-19T15:38:32;1.33;;;0.50;;
43664;SDS011;29263;48.172;11.484;2023-02-19T15:40:58;1.17;;;0.47;;
43664;SDS011;29263;48.172;11.484;2023-02-19T15:43:27;0.93;;;0.60;;
43664;SDS011;29263;48.172;11.484;2023-02-19T15:46:18;3.17;;;0.37;;
43664;SDS011;29263;48.172;11.484;2023-02-19T15:49:02;0.60;;;0.30;;
43664;SDS011;29263;48.172;11.484;2023-02-19T15:51:38;1.80;;;0.73;;
43664;SDS011;29263;48.172;11.484;2023-02-19T15:56:55;1.30;;;0.40;;
43664;SDS011;29263;48.172;11.484;2023-02-19T16:01:57;1.87;;;0.60;;
43664;SDS011;29263;48.172;11.484;2023-02-19T16:04:24;1.83;;;0.43;;
43664;SDS011;29263;48.172;11.484;2023-02-19T16:06:54;0.90;;;0.50;;
43664;SDS011;29263;48.172;11.484;2023-02-19T16:09:26;1.50;;;0.40;;
43664;SDS011;29263;48.172;11.484;2023-02-19T16:11:58;2.20;;;0.60;;
43664;SDS011;29263;48.172;11.484;2023-02-19T16:17:16;0.82;;;0.38;;
43664;SDS011;29263;48.172;11.484;2023-02-19T16:19:46;1.17;;;0.40;;
43664;SDS011;29263;48.172;11.484;2023-02-19T16:22:18;2.83;;;0.50;;
43664;SDS011;29263;48.172;11.484;2023-02-19T16:24:49;2.50;;;0.70;;
43664;SDS011;29263;48.172;11.484;2023-02-19T16:27:27;0.57;;;0.37;;
43664;SDS011;29263;48.172;11.484;2023-02-19T16:29:53;1.77;;;0.40;;
43664;SDS011;29263;48.172;11.484;2023-02-19T16:32:18;2.60;;;0.70;;
43664;SDS011;29263;48.172;11.484;2023-02-19T16:34:45;1.10;;;0.60;;
43664;SDS011;29263;48.172;11.484;2023-02-19T16:37:31;1.47;;;0.50;;
43664;SDS011;29263;48.172;11.484;2023-02-19T16:42:36;0.97;;;0.40;;
43664;SDS011;29263;48.172;11.484;2023-02-19T16:45:19;1.70;;;0.40;;
43664;SDS011;29263;48.172;11.484;2023-02-19T16:47:44;1.87;;;0.83;;
43664;SDS011;29263;48.172;11.484;2023-02-19T16:50:15;0.70;;;0.50;;
43664;SDS011;29263;48.172;11.484;2023-02-19T16:53:18;2.50;;;0.50;;
43664;SDS011;29263;48.172;11.484;2023-02-19T16:55:40;1.97;;;0.60;;
43664;SDS011;29263;48.172;11.484;2023-02-19T16:58:06;1.97;;;0.50;;
43664;SDS011;29263;48.172;11.484;2023-02-19T17:00:32;4.03;;;1.60;;
43664;SDS011;29263;48.172;11.484;2023-02-19T17:02:58;1.93;;;0.60;;
43664;SDS011;29263;48.172;11.484;2023-02-19T17:05:27;0.50;;;0.40;;
43664;SDS011;29263;48.172;11.484;2023-02-19T17:07:54;1.73;;;0.50;;
43664;SDS011;29263;48.172;11.484;2023-02-19T17:10:21;0.73;;;0.43;;
43664;SDS011;29263;48.172;11.484;2023-02-19T17:12:52;0.50;;;0.40;;
43664;SDS011;29263;48.172;11.484;2023-02-19T17:15:18;1.73;;;0.60;;
43664;SDS011;29263;48.172;11.484;2023-02-19T17:17:45;0.80;;;0.33;;
43664;SDS011;29263;48.172;11.484;2023-02-19T17:22:42;2.40;;;0.47;;
43664;SDS011;29263;48.172;11.484;2023-02-19T17:25:08;0.67;;;0.30;;
43664;SDS011;29263;48.172;11.484;2023-02-19T17:27:34;3.83;;;0.70;;
43664;SDS011;29263;48.172;11.484;2023-02-19T17:30:00;1.73;;;0.40;;
43664;SDS011;29263;48.172;11.484;2023-02-19T17:32:25;2.20;;;1.00;;
43664;SDS011;29263;48.172;11.484;2023-02-19T17:34:51;1.47;;;0.80;;